sensor_id;sensor_type;location;lat;lon;timestamp;P1;durP1;ratioP1;P2;durP2;ratioP2
52438;SDS011;73188;52.948;6.012;2024-01-30T00:09:49;330.55;;;296.67;;
52438;SDS011;73188;52.948;6.012;2024-01-30T00:20:15;387.38;;;334.50;;
52438;SDS011;73188;52.948;6.012;2024-01-30T00:30:41;386.10;;;329.02;;
52438;SDS011;73188;52.948;6.012;2024-01-30T00:41:10;510.35;;;321.10;;
52438;SDS011;73188;52.948;6.012;2024-01-30T00:51:36;580.95;;;318.90;;
52438;SDS011;73188;52.948;6.012;2024-01-30T01:02:02;886.75;;;337.65;;
52438;SDS011;73188;52.948;6.012;2024-01-30T01:12:28;1195.20;;;360.63;;
52438;SDS011;73188;52.948;6.012;2024-01-30T01:22:53;1166.57;;;350.52;;
52438;SDS011;73188;52.948;6.012;2024-01-30T01:33:19;1114.93;;;344.23;;
52438;SDS011;73188;52.948;6.012;2024-01-30T01:43:45;1200.50;;;359.60;;
52438;SDS011;73188;52.948;6.012;2024-01-30T01:54:11;1143.45;;;345.30;;
52438;SDS011;73188;52.948;6.012;2024-01-30T02:04:38;1155.63;;;350.13;;
52438;SDS011;73188;52.948;6.012;2024-01-30T02:15:04;1170.18;;;355.33;;
52438;SDS011;73188;52.948;6.012;2024-01-30T02:25:38;1241.68;;;351.23;;
52438;SDS011;73188;52.948;6.012;2024-01-30T02:36:12;1209.65;;;348.52;;
52438;SDS011;73188;52.948;6.012;2024-01-30T02:46:38;1210.65;;;358.25;;
52438;SDS011;73188;52.948;6.012;2024-01-30T02:57:04;1227.70;;;363.48;;
52438;SDS011;73188;52.948;6.012;2024-01-30T03:07:30;1279.93;;;361.50;;
52438;SDS011;73188;52.948;6.012;2024-01-30T03:17:55;1240.30;;;359.45;;
52438;SDS011;73188;52.948;6.012;2024-01-30T03:28:21;1194.75;;;360.17;;
52438;SDS011;73188;52.948;6.012;2024-01-30T03:38:47;1212.93;;;365.92;;
52438;SDS011;73188;52.948;6.012;2024-01-30T03:49:13;1253.40;;;368.08;;
52438;SDS011;73188;52.948;6.012;2024-01-30T03:59:41;1212.03;;;362.27;;
52438;SDS011;73188;52.948;6.012;2024-01-30T04:10:08;1240.93;;;370.08;;
52438;SDS011;73188;52.948;6.012;2024-01-30T04:20:35;1243.57;;;365.88;;
52438;SDS011;73188;52.948;6.012;2024-01-30T04:31:00;1284.03;;;376.15;;
52438;SDS011;73188;52.948;6.012;2024-01-30T04:41:26;1294.72;;;368.05;;
52438;SDS011;73188;52.948;6.012;2024-01-30T04:51:56;1384.30;;;388.77;;
52438;SDS011;73188;52.948;6.012;2024-01-30T05:02:22;1516.20;;;389.70;;
52438;SDS011;73188;52.948;6.012;2024-01-30T05:12:48;1532.88;;;401.80;;
52438;SDS011;73188;52.948;6.012;2024-01-30T05:23:14;1646.15;;;424.23;;
52438;SDS011;73188;52.948;6.012;2024-01-30T05:33:40;1634.38;;;421.05;;
52438;SDS011;73188;52.948;6.012;2024-01-30T05:44:06;1624.93;;;412.85;;
52438;SDS011;73188;52.948;6.012;2024-01-30T05:54:32;1626.28;;;411.35;;
52438;SDS011;73188;52.948;6.012;2024-01-30T06:04:58;1627.88;;;414.77;;
52438;SDS011;73188;52.948;6.012;2024-01-30T06:15:24;1671.13;;;432.17;;
52438;SDS011;73188;52.948;6.012;2024-01-30T06:25:51;1657.03;;;416.42;;
52438;SDS011;73188;52.948;6.012;2024-01-30T06:36:17;1619.22;;;419.33;;
52438;SDS011;73188;52.948;6.012;2024-01-30T06:46:43;1594.13;;;412.48;;
52438;SDS011;73188;52.948;6.012;2024-01-30T06:57:09;1687.10;;;426.85;;
52438;SDS011;73188;52.948;6.012;2024-01-30T07:07:37;1663.88;;;421.83;;
52438;SDS011;73188;52.948;6.012;2024-01-30T07:18:03;1671.40;;;419.10;;
52438;SDS011;73188;52.948;6.012;2024-01-30T07:28:33;1661.03;;;426.27;;
52438;SDS011;73188;52.948;6.012;2024-01-30T07:38:59;1708.30;;;434.23;;
52438;SDS011;73188;52.948;6.012;2024-01-30T07:49:25;1690.13;;;432.48;;
52438;SDS011;73188;52.948;6.012;2024-01-30T07:59:51;1707.28;;;430.27;;
52438;SDS011;73188;52.948;6.012;2024-01-30T08:10:17;1716.10;;;437.25;;
52438;SDS011;73188;52.948;6.012;2024-01-30T08:20:45;1718.57;;;446.58;;
52438;SDS011;73188;52.948;6.012;2024-01-30T08:31:11;1699.78;;;441.55;;
52438;SDS011;73188;52.948;6.012;2024-01-30T08:41:37;1691.97;;;443.13;;
52438;SDS011;73188;52.948;6.012;2024-01-30T08:52:03;1728.20;;;446.80;;
52438;SDS011;73188;52.948;6.012;2024-01-30T09:02:29;1717.13;;;457.55;;
52438;SDS011;73188;52.948;6.012;2024-01-30T09:12:55;1715.47;;;449.65;;
52438;SDS011;73188;52.948;6.012;2024-01-30T09:23:20;1754.72;;;463.98;;
52438;SDS011;73188;52.948;6.012;2024-01-30T09:33:46;1722.18;;;450.10;;
52438;SDS011;73188;52.948;6.012;2024-01-30T09:44:15;1751.90;;;451.60;;
52438;SDS011;73188;52.948;6.012;2024-01-30T09:54:42;1707.75;;;447.60;;
52438;SDS011;73188;52.948;6.012;2024-01-30T10:05:10;1723.32;;;454.05;;
52438;SDS011;73188;52.948;6.012;2024-01-30T10:15:40;1773.20;;;463.23;;
52438;SDS011;73188;52.948;6.012;2024-01-30T10:26:07;1547.63;;;466.38;;
52438;SDS011;73188;52.948;6.012;2024-01-30T10:36:33;1360.07;;;448.25;;
52438;SDS011;73188;52.948;6.012;2024-01-30T10:47:09;1350.97;;;446.25;;
52438;SDS011;73188;52.948;6.012;2024-01-30T10:57:40;1396.63;;;446.17;;
52438;SDS011;73188;52.948;6.012;2024-01-30T11:08:12;1423.10;;;452.98;;
52438;SDS011;73188;52.948;6.012;2024-01-30T11:18:39;1609.13;;;449.63;;
52438;SDS011;73188;52.948;6.012;2024-01-30T11:29:07;1789.20;;;475.90;;
52438;SDS011;73188;52.948;6.012;2024-01-30T11:39:34;1771.65;;;458.38;;
52438;SDS011;73188;52.948;6.012;2024-01-30T11:50:01;1804.65;;;470.38;;
52438;SDS011;73188;52.948;6.012;2024-01-30T12:00:30;1702.75;;;475.52;;
52438;SDS011;73188;52.948;6.012;2024-01-30T12:10:58;1621.15;;;463.60;;
52438;SDS011;73188;52.948;6.012;2024-01-30T12:21:24;1658.53;;;444.25;;
52438;SDS011;73188;52.948;6.012;2024-01-30T12:31:52;1406.57;;;428.08;;
52438;SDS011;73188;52.948;6.012;2024-01-30T12:42:20;1415.70;;;440.23;;
52438;SDS011;73188;52.948;6.012;2024-01-30T12:52:48;1654.63;;;456.70;;
52438;SDS011;73188;52.948;6.012;2024-01-30T13:03:14;1559.32;;;461.83;;
52438;SDS011;73188;52.948;6.012;2024-01-30T13:13:40;1544.25;;;460.15;;
52438;SDS011;73188;52.948;6.012;2024-01-30T13:24:06;1489.22;;;447.20;;
52438;SDS011;73188;52.948;6.012;2024-01-30T13:34:32;1558.43;;;461.52;;
52438;SDS011;73188;52.948;6.012;2024-01-30T13:44:58;1405.68;;;437.15;;
52438;SDS011;73188;52.948;6.012;2024-01-30T13:55:23;1402.60;;;432.17;;
52438;SDS011;73188;52.948;6.012;2024-01-30T14:05:50;1407.68;;;418.83;;
52438;SDS011;73188;52.948;6.012;2024-01-30T14:16:16;1322.70;;;392.50;;
52438;SDS011;73188;52.948;6.012;2024-01-30T14:26:42;1278.22;;;398.50;;
52438;SDS011;73188;52.948;6.012;2024-01-30T14:37:08;1292.05;;;400.13;;
52438;SDS011;73188;52.948;6.012;2024-01-30T14:47:34;1287.80;;;400.48;;
52438;SDS011;73188;52.948;6.012;2024-01-30T14:58:00;1303.57;;;403.63;;
52438;SDS011;73188;52.948;6.012;2024-01-30T15:08:27;1343.70;;;403.25;;
52438;SDS011;73188;52.948;6.012;2024-01-30T15:18:53;1380.35;;;399.35;;
52438;SDS011;73188;52.948;6.012;2024-01-30T15:29:19;1315.32;;;394.30;;
52438;SDS011;73188;52.948;6.012;2024-01-30T15:39:47;1335.10;;;392.42;;
52438;SDS011;73188;52.948;6.012;2024-01-30T15:50:13;1337.65;;;401.70;;
52438;SDS011;73188;52.948;6.012;2024-01-30T16:00:39;1322.65;;;394.23;;
52438;SDS011;73188;52.948;6.012;2024-01-30T16:11:05;1294.18;;;399.98;;
52438;SDS011;73188;52.948;6.012;2024-01-30T16:21:34;1297.65;;;392.90;;
52438;SDS011;73188;52.948;6.012;2024-01-30T16:31:59;1288.13;;;398.77;;
52438;SDS011;73188;52.948;6.012;2024-01-30T16:42:25;1264.28;;;386.25;;
52438;SDS011;73188;52.948;6.012;2024-01-30T16:52:51;1272.47;;;388.90;;
52438;SDS011;73188;52.948;6.012;2024-01-30T17:03:17;1275.50;;;384.80;;
52438;SDS011;73188;52.948;6.012;2024-01-30T17:13:43;1265.82;;;377.15;;
52438;SDS011;73188;52.948;6.012;2024-01-30T17:24:09;1249.82;;;377.00;;
52438;SDS011;73188;52.948;6.012;2024-01-30T17:34:36;1247.35;;;377.65;;
52438;SDS011;73188;52.948;6.012;2024-01-30T17:45:02;1263.28;;;373.42;;
52438;SDS011;73188;52.948;6.012;2024-01-30T17:55:29;1255.95;;;379.67;;
52438;SDS011;73188;52.948;6.012;2024-01-30T18:05:55;1251.82;;;380.58;;
52438;SDS011;73188;52.948;6.012;2024-01-30T18:16:21;1273.95;;;371.25;;
52438;SDS011;73188;52.948;6.012;2024-01-30T18:26:47;1248.35;;;382.83;;
52438;SDS011;73188;52.948;6.012;2024-01-30T18:37:13;1253.50;;;377.17;;
52438;SDS011;73188;52.948;6.012;2024-01-30T18:47:38;1253.00;;;375.67;;
52438;SDS011;73188;52.948;6.012;2024-01-30T18:58:04;1263.88;;;379.65;;
52438;SDS011;73188;52.948;6.012;2024-01-30T19:08:31;1270.72;;;380.77;;
52438;SDS011;73188;52.948;6.012;2024-01-30T19:18:57;1261.13;;;363.67;;
52438;SDS011;73188;52.948;6.012;2024-01-30T19:29:23;1260.97;;;374.15;;
52438;SDS011;73188;52.948;6.012;2024-01-30T19:39:48;1332.00;;;377.80;;
52438;SDS011;73188;52.948;6.012;2024-01-30T19:50:14;1405.47;;;379.45;;
52438;SDS011;73188;52.948;6.012;2024-01-30T20:00:40;1375.80;;;375.75;;
52438;SDS011;73188;52.948;6.012;2024-01-30T20:11:15;1363.63;;;375.00;;
52438;SDS011;73188;52.948;6.012;2024-01-30T20:21:41;1387.20;;;396.17;;
52438;SDS011;73188;52.948;6.012;2024-01-30T20:32:12;1356.55;;;368.55;;
52438;SDS011;73188;52.948;6.012;2024-01-30T20:42:38;1372.20;;;371.95;;
52438;SDS011;73188;52.948;6.012;2024-01-30T20:53:04;1281.78;;;362.58;;
52438;SDS011;73188;52.948;6.012;2024-01-30T21:03:32;1312.72;;;360.00;;
52438;SDS011;73188;52.948;6.012;2024-01-30T21:13:58;1270.50;;;354.83;;
52438;SDS011;73188;52.948;6.012;2024-01-30T21:24:23;1347.70;;;369.08;;
52438;SDS011;73188;52.948;6.012;2024-01-30T21:34:49;1116.93;;;334.50;;
52438;SDS011;73188;52.948;6.012;2024-01-30T21:45:16;1234.53;;;345.48;;
52438;SDS011;73188;52.948;6.012;2024-01-30T21:55:45;1102.40;;;340.23;;
52438;SDS011;73188;52.948;6.012;2024-01-30T22:06:11;1143.53;;;338.73;;
52438;SDS011;73188;52.948;6.012;2024-01-30T22:16:38;1171.75;;;342.23;;
52438;SDS011;73188;52.948;6.012;2024-01-30T22:27:04;1145.35;;;340.63;;
52438;SDS011;73188;52.948;6.012;2024-01-30T22:37:30;1181.88;;;343.35;;
52438;SDS011;73188;52.948;6.012;2024-01-30T22:47:56;1132.47;;;334.70;;
52438;SDS011;73188;52.948;6.012;2024-01-30T22:58:22;1133.85;;;329.23;;
52438;SDS011;73188;52.948;6.012;2024-01-30T23:08:48;1172.85;;;339.15;;
52438;SDS011;73188;52.948;6.012;2024-01-30T23:19:13;1129.57;;;332.98;;
52438;SDS011;73188;52.948;6.012;2024-01-30T23:29:41;1133.05;;;329.08;;
52438;SDS011;73188;52.948;6.012;2024-01-30T23:40:08;1095.53;;;318.30;;
52438;SDS011;73188;52.948;6.012;2024-01-30T23:50:38;1100.45;;;322.30;;
